Time;durP1;ratioP1;P1;durP2;ratioP2;P2;SDS_P1;SDS_P2;PMS_P1;PMS_P2;Temp;Humidity;BMP_temperature;BMP_pressure;BME280_temperature;BME280_humidity;BME280_pressure;Samples;Min_cycle;Max_cycle;Signal;HPM_P1;HPM_P2
2022/05/17 00:00:48;;;;;;;8.77;2.95;;;;;;;23.11;33.67;101216.91;5086304;28;20428;-72
2022/05/17 00:03:15;;;;;;;6.20;2.67;;;;;;;23.02;33.72;101219.97;5086292;28;20410;-71
2022/05/17 00:05:42;;;;;;;5.60;2.55;;;;;;;22.94;34.29;101217.66;5085946;28;20453;-72
2022/05/17 00:08:10;;;;;;;6.18;2.63;;;;;;;22.95;34.30;101210.34;5086433;28;20429;-71
2022/05/17 00:10:37;;;;;;;4.90;2.67;;;;;;;22.90;34.20;101200.25;5086336;28;20402;-72
2022/05/17 00:13:04;;;;;;;4.83;2.50;;;;;;;22.84;34.39;101207.44;5085980;28;20493;-73
2022/05/17 00:15:31;;;;;;;5.57;2.75;;;;;;;22.81;33.81;101199.81;5085572;28;20406;-72
2022/05/17 00:18:00;;;;;;;5.53;2.87;;;;;;;22.80;33.92;101202.78;5085963;28;20926;-72
2022/05/17 00:20:27;;;;;;;4.22;2.40;;;;;;;22.76;33.84;101198.88;5085363;28;20509;-72
2022/05/17 00:22:55;;;;;;;4.88;2.50;;;;;;;22.75;33.99;101199.97;5085952;28;20496;-72
2022/05/17 00:25:24;;;;;;;4.80;2.63;;;;;;;22.74;33.95;101199.13;5098062;28;20492;-72
2022/05/17 00:27:51;;;;;;;5.47;2.50;;;;;;;22.70;33.98;101206.88;5105957;28;20493;-73
2022/05/17 00:30:19;;;;;;;7.72;2.42;;;;;;;22.67;33.80;101206.53;5105905;28;20924;-72
2022/05/17 00:32:45;;;;;;;5.50;2.35;;;;;;;22.64;33.53;101205.16;5106245;28;20487;-72
2022/05/17 00:35:14;;;;;;;5.70;2.40;;;;;;;22.60;34.02;101197.75;5106123;28;20424;-72
2022/05/17 00:37:41;;;;;;;5.80;2.22;;;;;;;22.60;34.01;101201.28;5091963;28;20417;-72
2022/05/17 00:40:10;;;;;;;3.22;2.33;;;;;;;22.51;33.78;101200.03;5092526;28;20414;-72
2022/05/17 00:42:37;;;;;;;4.70;2.50;;;;;;;22.49;33.67;101194.84;5091961;28;20401;-72
2022/05/17 00:45:04;;;;;;;4.38;2.10;;;;;;;22.53;33.85;101198.72;5092431;28;20457;-72
2022/05/17 00:47:34;;;;;;;4.95;2.30;;;;;;;22.56;33.93;101205.50;5092158;28;20459;-72
2022/05/17 00:50:07;;;;;;;2.90;2.13;;;;;;;22.54;34.02;101196.81;5092007;28;20421;-72
2022/05/17 00:52:41;;;;;;;4.28;2.10;;;;;;;22.53;34.03;101198.72;5091853;28;20504;-72
2022/05/17 00:55:13;;;;;;;5.38;2.30;;;;;;;22.52;33.80;101198.94;5092277;28;20458;-72
2022/05/17 00:57:45;;;;;;;3.75;2.30;;;;;;;22.49;34.03;101194.84;5091954;28;20409;-73
2022/05/17 01:00:47;;;;;;;6.43;2.33;;;;;;;22.48;33.97;101195.06;5116126;27;20396;-72
2022/05/17 01:03:19;;;;;;;2.78;2.30;;;;;;;22.46;33.83;101197.19;5105335;28;20491;-72
2022/05/17 01:05:48;;;;;;;4.97;2.60;;;;;;;22.45;33.89;101190.94;5088708;28;20502;-72
2022/05/17 01:08:18;;;;;;;4.70;2.33;;;;;;;22.48;33.80;101192.38;5087831;28;21018;-71
2022/05/17 01:10:45;;;;;;;3.67;2.10;;;;;;;22.46;34.16;101191.81;5097803;28;20428;-72
2022/05/17 01:15:58;;;;;;;4.97;2.63;;;;;;;22.41;34.25;101188.97;5105333;28;20409;-70
2022/05/17 01:18:25;;;;;;;3.70;2.30;;;;;;;22.40;34.31;101182.78;5098196;28;20414;-70
2022/05/17 01:22:08;;;;;;;4.25;2.42;;;;;;;22.33;34.48;101182.06;5095996;27;2062720;-72
2022/05/17 01:24:35;;;;;;;6.60;2.33;;;;;;;22.29;34.61;101184.44;5157746;27;20421;-71
2022/05/17 01:27:08;;;;;;;4.15;2.20;;;;;;;22.24;34.62;101178.88;5164823;27;20524;-71
2022/05/17 01:29:39;;;;;;;5.55;2.30;;;;;;;22.20;34.51;101171.47;5151836;27;20409;-71
2022/05/17 01:32:08;;;;;;;3.95;2.10;;;;;;;22.13;34.49;101171.63;5163639;27;20492;-71
2022/05/17 01:34:35;;;;;;;3.80;2.20;;;;;;;22.10;34.80;101170.19;5150122;27;20428;-71
2022/05/17 01:37:02;;;;;;;4.53;2.30;;;;;;;22.06;34.87;101176.31;5149448;27;20818;-71
2022/05/17 01:39:30;;;;;;;6.97;2.42;;;;;;;22.00;35.29;101177.22;5164509;27;20443;-70
2022/05/17 01:41:58;;;;;;;3.80;2.28;;;;;;;21.96;35.31;101180.41;5135721;27;21011;-71
2022/05/17 01:44:25;;;;;;;6.38;2.38;;;;;;;21.95;35.32;101184.16;5163422;27;20498;-71
2022/05/17 01:47:20;;;;;;;6.10;2.60;;;;;;;21.94;35.11;101168.22;5089627;27;20406;-69
2022/05/17 01:49:47;;;;;;;5.18;2.30;;;;;;;21.89;35.44;101171.59;5085599;28;20549;-70
2022/05/17 01:52:14;;;;;;;3.90;2.30;;;;;;;21.87;35.25;101173.72;5076789;28;20505;-69
2022/05/17 01:54:41;;;;;;;3.78;2.20;;;;;;;21.83;35.23;101177.13;5086508;28;20422;-70
2022/05/17 01:57:08;;;;;;;4.20;2.23;;;;;;;21.74;35.37;101177.47;5086735;28;20493;-70
2022/05/17 01:59:35;;;;;;;3.20;2.20;;;;;;;21.73;35.34;101174.97;5085345;28;20422;-69
2022/05/17 02:02:03;;;;;;;3.17;2.15;;;;;;;21.68;35.54;101172.16;5086997;28;20620;-70
2022/05/17 02:04:32;;;;;;;4.97;2.35;;;;;;;21.62;35.72;101171.22;5083351;28;20950;-70
2022/05/17 02:06:59;;;;;;;3.60;2.30;;;;;;;21.57;35.72;101169.22;5084875;28;20508;-70
2022/05/17 02:09:26;;;;;;;4.85;2.38;;;;;;;21.52;35.82;101166.41;5084754;28;20414;-70
2022/05/17 02:11:54;;;;;;;4.45;2.35;;;;;;;21.53;35.82;101170.72;5084060;28;20561;-70
2022/05/17 02:14:21;;;;;;;4.05;2.03;;;;;;;21.51;35.90;101169.34;5085271;28;20422;-70
2022/05/17 02:16:48;;;;;;;3.45;2.30;;;;;;;21.51;35.95;101169.34;5086022;28;20509;-70
2022/05/17 02:19:19;;;;;;;4.22;2.17;;;;;;;21.38;36.17;101157.66;5083172;28;20504;-70
2022/05/17 02:23:54;;;;;;;3.42;2.42;;;;;;;21.44;36.06;101163.19;5123251;27;20396;-70
2022/05/17 02:26:21;;;;;;;3.25;2.40;;;;;;;21.48;35.92;101159.00;5089813;28;21246;-70
2022/05/17 02:28:48;;;;;;;4.95;2.28;;;;;;;21.47;36.12;101155.47;5097089;28;20424;-70
2022/05/17 02:31:17;;;;;;;4.38;2.08;;;;;;;21.46;36.12;101159.22;5105752;28;20507;-70
2022/05/17 02:33:44;;;;;;;3.47;2.50;;;;;;;21.36;36.23;101157.06;5091017;28;20418;-69
2022/05/17 02:36:11;;;;;;;5.35;2.30;;;;;;;21.35;36.18;101158.13;5087835;28;20497;-70
2022/05/17 02:38:38;;;;;;;4.10;2.10;;;;;;;21.41;36.16;101159.09;5095018;28;20421;-70
2022/05/17 02:41:06;;;;;;;3.83;2.22;;;;;;;21.38;36.18;101156.84;5105573;28;20416;-70
2022/05/17 02:43:33;;;;;;;5.32;3.10;;;;;;;21.34;36.30;101156.47;5090518;28;20543;-70
2022/05/17 02:46:00;;;;;;;2.80;1.90;;;;;;;21.37;36.26;101160.59;5089542;28;20462;-70
2022/05/17 02:48:27;;;;;;;3.95;2.35;;;;;;;21.35;36.40;101154.59;5099150;28;20497;-70
2022/05/17 02:50:55;;;;;;;3.78;2.38;;;;;;;21.35;36.53;101155.41;5097461;28;20412;-70
2022/05/17 02:53:22;;;;;;;4.80;2.20;;;;;;;21.34;36.35;101158.38;5091558;28;20421;-72
2022/05/17 02:55:49;;;;;;;2.97;2.27;;;;;;;21.29;36.39;101155.53;5100891;28;20798;-70
2022/05/17 02:58:17;;;;;;;4.55;2.53;;;;;;;21.26;36.74;101170.28;5087656;28;20406;-70
2022/05/17 03:00:44;;;;;;;5.93;2.30;;;;;;;21.24;36.66;101172.41;5089975;28;20506;-70
2022/05/17 03:03:11;;;;;;;4.90;2.50;;;;;;;21.24;36.73;101172.41;5098415;28;20432;-70
2022/05/17 03:05:39;;;;;;;5.88;2.25;;;;;;;21.23;36.54;101173.47;5093040;28;20503;-69
2022/05/17 03:08:06;;;;;;;7.60;2.40;;;;;;;21.23;36.72;101169.91;5090098;28;20424;-72
2022/05/17 03:10:33;;;;;;;4.72;2.47;;;;;;;21.22;36.59;101171.00;5099423;28;20420;-72
2022/05/17 03:13:01;;;;;;;3.95;2.58;;;;;;;21.20;36.72;101173.91;5104926;28;20503;-72
2022/05/17 03:15:29;;;;;;;3.78;2.20;;;;;;;21.20;36.73;101168.53;5096607;28;20439;-71
2022/05/17 03:17:56;;;;;;;4.20;2.27;;;;;;;21.24;36.51;101166.19;5089569;28;20531;-71
2022/05/17 03:20:23;;;;;;;4.05;2.40;;;;;;;21.30;36.55;101166.09;5097375;28;20577;-71
2022/05/17 03:22:50;;;;;;;9.75;3.20;;;;;;;21.38;36.42;101173.03;5088562;28;20542;-71
2022/05/17 03:25:17;;;;;;;5.00;2.20;;;;;;;21.44;36.31;101173.97;5099019;28;20417;-71
2022/05/17 03:27:44;;;;;;;6.10;2.80;;;;;;;21.50;36.15;101170.38;5103158;28;20424;-71
2022/05/17 03:30:13;;;;;;;10.75;2.70;;;;;;;21.57;36.10;101171.09;5089323;28;20421;-71
2022/05/17 03:32:41;;;;;;;4.50;2.55;;;;;;;21.61;36.24;101177.69;5086155;28;20939;-71
2022/05/17 03:35:09;;;;;;;5.45;2.45;;;;;;;21.70;36.07;101173.59;5074252;28;20565;-71
2022/05/17 03:37:37;;;;;;;4.82;2.50;;;;;;;21.81;35.91;101182.75;5088443;28;20474;-71
2022/05/17 03:40:08;;;;;;;5.38;2.42;;;;;;;21.82;36.09;101181.69;5073887;28;20504;-71
2022/05/17 03:42:35;;;;;;;5.10;2.60;;;;;;;21.89;35.63;101186.97;5074313;28;20818;-71
2022/05/17 03:45:03;;;;;;;3.53;2.28;;;;;;;21.95;35.65;101186.88;5083128;28;20424;-71
2022/05/17 03:47:30;;;;;;;4.15;2.45;;;;;;;22.09;35.57;101187.47;5075107;28;20419;-71
2022/05/17 03:49:58;;;;;;;4.72;2.50;;;;;;;22.23;35.42;101188.03;5085347;28;20461;-70
2022/05/17 03:52:25;;;;;;;6.20;2.88;;;;;;;22.38;35.18;101194.84;5079513;28;20496;-70
2022/05/17 03:54:55;;;;;;;5.45;2.30;;;;;;;22.49;34.77;101194.84;5072584;28;20422;-70
2022/05/17 03:57:22;;;;;;;4.90;2.60;;;;;;;22.61;34.86;101178.59;5071758;28;20413;-70
2022/05/17 03:59:49;;;;;;;4.80;2.40;;;;;;;22.85;34.86;101192.88;5072076;28;20513;-70
2022/05/17 04:02:16;;;;;;;19.85;3.30;;;;;;;23.10;34.05;101194.44;5071792;28;20513;-71
2022/05/17 04:04:43;;;;;;;6.00;2.58;;;;;;;23.37;33.72;101186.56;5069793;28;20421;-70
2022/05/17 04:07:11;;;;;;;4.07;2.20;;;;;;;23.65;33.01;101192.97;5071431;28;20417;-70
2022/05/17 04:09:39;;;;;;;8.80;2.80;;;;;;;23.94;32.79;101198.34;5071454;28;20486;-70
2022/05/17 04:12:07;;;;;;;7.00;2.50;;;;;;;24.23;31.99;101197.13;5071600;28;20468;-71
2022/05/17 04:14:34;;;;;;;6.22;2.40;;;;;;;24.48;31.73;101198.53;5071287;28;20418;-71
2022/05/17 04:17:00;;;;;;;6.63;2.53;;;;;;;24.75;31.46;101197.81;5071753;28;20502;-71
2022/05/17 04:19:27;;;;;;;7.17;2.57;;;;;;;25.02;31.01;101192.44;5071677;28;20498;-71
2022/05/17 04:21:54;;;;;;;6.72;2.70;;;;;;;25.39;30.48;101197.19;5069917;28;20860;-71
2022/05/17 04:25:02;;;;;;;14.68;3.10;;;;;;;25.81;29.54;101201.88;5071358;28;20738;-71
2022/05/17 04:27:30;;;;;;;8.05;2.47;;;;;;;26.21;29.33;101195.09;5071913;28;20510;-70
2022/05/17 04:29:57;;;;;;;7.57;2.60;;;;;;;26.83;28.25;101203.53;5067448;28;20412;-70
2022/05/17 04:32:24;;;;;;;7.78;2.70;;;;;;;27.31;27.91;101200.69;5075937;28;20514;-71
2022/05/17 04:34:51;;;;;;;7.37;2.70;;;;;;;27.77;26.87;101193.34;5078519;28;20494;-70
2022/05/17 04:37:18;;;;;;;4.28;2.05;;;;;;;28.14;26.46;101189.47;5068726;28;20913;-70
2022/05/17 04:39:45;;;;;;;5.20;2.22;;;;;;;28.51;26.13;101191.00;5065905;28;20913;-71
2022/05/17 04:42:14;;;;;;;6.15;2.30;;;;;;;28.80;25.53;101193.06;5065099;28;20415;-71
2022/05/17 04:44:41;;;;;;;7.38;2.88;;;;;;;29.13;25.01;101188.78;5067998;28;20518;-70
2022/05/17 04:47:09;;;;;;;6.33;2.33;;;;;;;29.49;24.61;101190.44;5064030;28;20503;-70
2022/05/17 04:49:37;;;;;;;7.43;2.95;;;;;;;29.82;24.24;101194.31;5065384;28;20415;-70
2022/05/17 04:52:04;;;;;;;6.25;3.00;;;;;;;30.12;23.94;101189.59;5063598;28;20423;-73
2022/05/17 04:54:31;;;;;;;8.15;2.85;;;;;;;30.33;23.93;101179.25;5074559;28;20496;-72
2022/05/17 04:56:58;;;;;;;6.00;2.63;;;;;;;30.27;23.50;101186.72;5083234;28;20453;-72
2022/05/17 04:59:26;;;;;;;8.02;3.00;;;;;;;29.47;24.88;101190.75;5085740;28;20999;-73
2022/05/17 05:01:53;;;;;;;6.53;3.03;;;;;;;29.79;24.43;101194.06;5086109;28;21582;-73
2022/05/17 05:04:20;;;;;;;8.65;3.05;;;;;;;30.01;24.36;101196.28;5086030;28;20429;-73
2022/05/17 05:06:47;;;;;;;5.43;2.40;;;;;;;30.50;24.01;101195.19;5079530;28;20459;-73
2022/05/17 05:09:15;;;;;;;5.55;3.33;;;;;;;30.98;23.33;101197.88;5065730;28;20424;-70
2022/05/17 05:11:42;;;;;;;3.90;2.40;;;;;;;31.29;22.82;101191.91;5066053;28;20491;-72
2022/05/17 05:14:09;;;;;;;7.57;3.28;;;;;;;31.49;22.92;101188.06;5065898;28;20510;-69
2022/05/17 05:16:39;;;;;;;9.15;3.90;;;;;;;31.81;22.18;101186.41;5069800;28;20892;-73
2022/05/17 05:19:06;;;;;;;7.45;3.30;;;;;;;32.10;21.74;101180.69;5067398;28;21624;-69
2022/05/17 05:21:33;;;;;;;13.02;5.15;;;;;;;32.30;21.71;101182.19;5051806;28;20514;-71
2022/05/17 05:24:04;;;;;;;12.93;5.97;;;;;;;32.62;21.66;101185.16;5059262;28;20497;-71
2022/05/17 05:26:33;;;;;;;8.68;3.78;;;;;;;32.73;21.08;101184.59;5058908;28;21031;-74
2022/05/17 05:29:00;;;;;;;12.52;4.20;;;;;;;32.95;20.55;101181.09;5056317;28;20934;-71
2022/05/17 05:31:27;;;;;;;6.67;3.33;;;;;;;33.12;20.51;101180.44;5056991;28;21370;-69
2022/05/17 05:33:56;;;;;;;6.97;3.33;;;;;;;33.31;20.35;101179.44;5060018;28;20455;-69
2022/05/17 05:36:23;;;;;;;6.07;3.60;;;;;;;33.45;20.80;101179.38;5043809;28;20424;-68
2022/05/17 05:38:51;;;;;;;4.82;3.13;;;;;;;33.83;20.16;101170.72;5037173;28;20505;-69
2022/05/17 05:41:18;;;;;;;7.93;3.10;;;;;;;34.03;19.96;101172.91;5047196;28;20425;-69
2022/05/17 05:46:29;;;;;;;21.60;5.20;;;;;;;34.67;19.53;101180.69;5043747;28;20433;-72
2022/05/17 05:48:57;;;;;;;7.70;3.65;;;;;;;34.74;19.02;101177.50;5045029;28;20474;-69
2022/05/17 05:51:25;;;;;;;9.68;4.18;;;;;;;35.04;18.80;101181.22;5045582;28;20419;-71
2022/05/17 05:53:52;;;;;;;83.57;8.93;;;;;;;35.34;19.05;101177.81;5044135;28;20432;-68
2022/05/17 05:56:19;;;;;;;46.07;6.07;;;;;;;35.76;18.33;101184.38;5043310;28;20408;-70
2022/05/17 05:58:46;;;;;;;12.50;4.28;;;;;;;35.87;18.19;101178.47;5045083;28;21037;-67
2022/05/17 06:01:13;;;;;;;7.27;3.60;;;;;;;36.09;17.79;101177.44;5044217;28;20428;-69
2022/05/17 06:03:40;;;;;;;8.02;4.10;;;;;;;36.22;17.64;101172.84;5041615;28;20443;-69
2022/05/17 06:06:09;;;;;;;9.52;4.15;;;;;;;36.60;16.90;101171.94;5045720;28;20431;-70
2022/05/17 06:08:36;;;;;;;7.45;3.60;;;;;;;37.00;17.03;101168.72;5044588;28;20428;-69
2022/05/17 06:11:04;;;;;;;6.13;3.00;;;;;;;37.47;17.33;101172.00;5044814;28;20948;-68
2022/05/17 06:13:31;;;;;;;6.00;2.72;;;;;;;37.79;16.72;101174.28;5044224;28;20412;-70
2022/05/17 06:15:58;;;;;;;7.10;2.80;;;;;;;37.92;16.45;101175.06;5044478;28;20428;-69
2022/05/17 06:18:25;;;;;;;7.78;2.83;;;;;;;38.42;15.76;101169.16;5044063;28;20420;-70
2022/05/17 06:20:54;;;;;;;12.52;3.20;;;;;;;38.30;16.23;101166.41;5045226;28;20416;-71
2022/05/17 06:23:25;;;;;;;5.88;2.78;;;;;;;38.76;15.34;101169.00;5043717;28;20507;-70
2022/05/17 06:25:52;;;;;;;10.60;3.22;;;;;;;39.08;15.02;101169.94;5045134;28;20408;-71
2022/05/17 06:28:20;;;;;;;8.00;3.20;;;;;;;39.27;15.20;101174.81;5042985;28;20922;-70
2022/05/17 06:30:47;;;;;;;6.65;3.08;;;;;;;39.31;15.16;101180.44;5042407;28;20519;-70
2022/05/17 06:33:15;;;;;;;7.00;3.80;;;;;;;39.13;15.44;101168.88;5044574;28;20420;-70
2022/05/17 06:35:43;;;;;;;8.73;3.40;;;;;;;38.76;15.82;101171.78;5043835;28;20429;-70
2022/05/17 06:38:10;;;;;;;7.25;3.35;;;;;;;38.19;16.76;101173.59;5039916;28;20952;-70
2022/05/17 06:40:39;;;;;;;4.68;2.70;;;;;;;37.46;17.09;101167.63;5042851;28;20552;-71
2022/05/17 06:43:06;;;;;;;5.47;2.92;;;;;;;37.14;17.22;101162.91;5044302;28;20455;-71
2022/05/17 06:45:34;;;;;;;8.15;2.80;;;;;;;36.88;18.13;101164.75;5043123;28;20458;-71
2022/05/17 06:48:01;;;;;;;6.97;3.08;;;;;;;36.72;17.89;101161.78;5043968;28;20433;-70
2022/05/17 06:50:28;;;;;;;4.10;2.40;;;;;;;36.44;18.33;101172.53;5042960;28;20926;-71
2022/05/17 06:52:55;;;;;;;5.22;2.50;;;;;;;36.01;18.72;101170.78;5043105;28;21286;-70
2022/05/17 06:55:23;;;;;;;8.18;2.53;;;;;;;35.62;19.12;101167.22;5041980;28;20546;-72
2022/05/17 06:57:51;;;;;;;5.43;2.72;;;;;;;35.00;19.76;101166.47;5038163;28;20501;-70
2022/05/17 07:00:20;;;;;;;4.97;2.47;;;;;;;34.58;20.13;101160.59;5042433;28;20447;-70
2022/05/17 07:02:47;;;;;;;5.22;2.90;;;;;;;34.11;20.24;101165.81;5043997;28;20425;-70
2022/05/17 07:05:15;;;;;;;5.13;2.30;;;;;;;33.38;21.37;101165.28;5041197;28;20461;-71
2022/05/17 07:07:42;;;;;;;6.50;2.30;;;;;;;32.71;22.27;101164.88;5041675;28;20914;-70
2022/05/17 07:13:08;;;;;;;7.15;2.47;;;;;;;32.02;23.22;101164.91;5035472;28;20417;-71
2022/05/17 07:15:35;;;;;;;6.70;2.67;;;;;;;31.70;23.12;101174.81;5040450;28;20428;-70
2022/05/17 07:18:02;;;;;;;4.45;2.40;;;;;;;31.52;23.70;101164.75;5033216;28;20976;-70
2022/05/17 07:20:30;;;;;;;5.05;2.40;;;;;;;31.44;23.97;101158.00;5034081;28;20437;-70
2022/05/17 07:22:57;;;;;;;3.55;2.70;;;;;;;31.37;24.17;101165.78;5043668;28;20511;-71
2022/05/17 07:25:24;;;;;;;6.68;2.50;;;;;;;31.20;23.95;101169.06;5041868;28;20444;-71
2022/05/17 07:27:51;;;;;;;6.38;2.45;;;;;;;31.22;24.13;101162.19;5042264;28;20784;-71
2022/05/17 07:30:19;;;;;;;4.63;2.50;;;;;;;31.13;24.65;101165.91;5043082;28;20551;-72
2022/05/17 07:32:47;;;;;;;4.72;2.40;;;;;;;31.11;24.75;101174.41;5043691;28;20488;-70
2022/05/17 07:35:14;;;;;;;5.40;2.40;;;;;;;31.02;24.49;101166.03;5043098;28;20416;-70
2022/05/17 07:37:41;;;;;;;4.72;2.40;;;;;;;30.98;24.88;101166.94;5042448;28;20795;-71
2022/05/17 07:40:10;;;;;;;5.75;2.50;;;;;;;30.92;24.56;101162.66;5040384;28;20416;-70
2022/05/17 07:42:37;;;;;;;6.23;2.50;;;;;;;30.97;24.56;101154.34;5043972;28;20432;-70
2022/05/17 07:45:05;;;;;;;7.03;3.10;;;;;;;30.85;24.66;101163.81;5042760;28;20820;-72
2022/05/17 07:47:33;;;;;;;3.83;2.50;;;;;;;30.93;24.41;101159.63;5043015;28;20431;-70
2022/05/17 07:50:01;;;;;;;5.88;2.63;;;;;;;30.92;24.47;101154.44;5038055;28;20976;-72
2022/05/17 07:52:28;;;;;;;3.97;2.25;;;;;;;30.83;24.33;101165.22;5034166;28;20426;-72
2022/05/17 07:54:55;;;;;;;5.80;2.70;;;;;;;30.95;24.63;101151.91;5039489;28;20759;-72
2022/05/17 07:57:23;;;;;;;3.40;2.22;;;;;;;31.15;23.90;101147.25;5038723;28;20590;-70
2022/05/17 07:59:51;;;;;;;4.93;2.40;;;;;;;31.38;24.02;101146.28;5037337;28;20945;-72
2022/05/17 08:02:18;;;;;;;3.20;2.00;;;;;;;31.56;23.41;101144.66;5029955;28;20485;-72
2022/05/17 08:04:47;;;;;;;4.82;2.30;;;;;;;31.45;23.58;101146.72;5034504;28;21012;-73
2022/05/17 08:07:14;;;;;;;4.68;2.70;;;;;;;31.49;23.60;101141.47;5049725;28;20421;-71
2022/05/17 08:09:41;;;;;;;4.40;2.30;;;;;;;31.38;24.26;101140.00;5045138;28;20456;-72
2022/05/17 08:12:10;;;;;;;3.17;2.13;;;;;;;31.38;24.00;101143.56;5051395;28;20483;-72
2022/05/17 08:14:39;;;;;;;5.13;2.33;;;;;;;31.18;23.51;101141.97;5036386;28;20424;-71
2022/05/17 08:17:08;;;;;;;5.43;2.30;;;;;;;31.07;23.72;101129.56;5042380;28;20428;-71
2022/05/17 08:19:35;;;;;;;2.65;2.00;;;;;;;30.83;23.07;101135.94;5046106;28;20420;-72
2022/05/17 08:22:05;;;;;;;5.28;2.70;;;;;;;30.91;23.83;101125.41;5041186;28;20423;-71
2022/05/17 08:27:31;;;;;;;8.20;2.50;;;;;;;31.24;24.13;101126.25;5048392;28;20933;-71
2022/05/17 08:27:36;;;;;;;4.30;2.20;;;;;;;30.82;24.14;101130.75;5038492;28;20814;-72
2022/05/17 08:30:07;;;;;;;3.20;2.20;;;;;;;30.95;23.62;101121.00;5041615;28;20784;-71
2022/05/17 08:35:19;;;;;;;3.03;1.70;;;;;;;30.85;23.29;101119.22;5040570;28;20407;-71
2022/05/17 08:37:47;;;;;;;2.78;2.08;;;;;;;31.04;23.28;101117.31;5042851;28;20509;-71
2022/05/17 08:40:20;;;;;;;4.40;2.10;;;;;;;30.75;24.04;101114.69;5043884;28;20424;-71
2022/05/17 08:42:54;;;;;;;4.70;2.20;;;;;;;30.78;23.87;101116.03;5048516;28;20505;-71
2022/05/17 08:45:34;;;;;;;3.92;2.28;;;;;;;30.87;23.88;101117.78;5047970;28;21952;-72
2022/05/17 08:48:04;;;;;;;5.20;2.50;;;;;;;30.99;23.88;101116.53;5044330;28;20428;-68
2022/05/17 08:50:35;;;;;;;6.05;2.20;;;;;;;30.92;24.03;101110.63;5044649;28;20558;-71
2022/05/17 08:53:04;;;;;;;4.07;2.28;;;;;;;30.86;24.03;101109.88;5054943;28;20424;-71
2022/05/17 08:55:36;;;;;;;3.22;2.00;;;;;;;30.71;24.14;101108.19;5050553;28;20425;-71
2022/05/17 08:58:08;;;;;;;4.13;2.33;;;;;;;30.68;24.64;101095.09;5040935;28;20421;-71
2022/05/17 09:00:40;;;;;;;3.50;2.10;;;;;;;30.53;25.02;101092.59;5039748;28;21038;-72
2022/05/17 09:03:19;;;;;;;3.47;2.20;;;;;;;30.72;25.33;101098.03;5038953;28;20416;-72
2022/05/17 09:05:53;;;;;;;3.55;2.10;;;;;;;30.77;24.43;101092.50;5043203;28;20428;-71
2022/05/17 09:08:29;;;;;;;3.88;2.20;;;;;;;30.69;24.67;101094.00;5042949;28;20412;-71
2022/05/17 09:11:02;;;;;;;4.70;2.20;;;;;;;30.78;24.95;101092.22;5044269;28;20519;-72
2022/05/17 09:13:37;;;;;;;5.13;2.20;;;;;;;30.65;25.10;101088.31;5047981;28;20420;-71
2022/05/17 09:16:05;;;;;;;5.05;2.40;;;;;;;30.61;25.21;101090.00;5048900;28;20507;-71
2022/05/17 09:18:33;;;;;;;5.97;2.25;;;;;;;30.63;25.45;101085.06;5050915;28;20984;-71
2022/05/17 09:21:00;;;;;;;5.35;2.45;;;;;;;30.66;25.34;101078.16;5028022;28;20422;-71
2022/05/17 09:23:28;;;;;;;6.75;2.58;;;;;;;30.68;25.19;101070.47;5031398;28;20460;-71
2022/05/17 09:26:07;;;;;;;4.30;2.30;;;;;;;30.97;25.18;101072.22;5026761;28;20441;-71
2022/05/17 09:28:50;;;;;;;4.70;2.30;;;;;;;31.13;25.09;101061.84;5037476;28;20426;-72
2022/05/17 09:31:28;;;;;;;22.15;4.10;;;;;;;31.19;24.89;101064.19;5038339;28;20427;-72
2022/05/17 09:33:58;;;;;;;4.75;2.28;;;;;;;31.03;25.09;101060.09;5039605;28;20972;-75
2022/05/17 09:36:29;;;;;;;23.85;3.13;;;;;;;30.99;25.92;101051.66;5044220;28;20456;-72
2022/05/17 09:38:59;;;;;;;4.88;2.42;;;;;;;31.11;26.02;101051.19;5048044;28;20598;-71
2022/05/17 09:41:30;;;;;;;4.40;2.55;;;;;;;31.02;25.21;101051.06;5047218;28;20503;-75
2022/05/17 09:44:04;;;;;;;5.53;2.57;;;;;;;30.74;25.41;101046.56;5046252;28;20437;-77
2022/05/17 09:46:33;;;;;;;5.60;2.97;;;;;;;30.67;25.85;101038.75;5048713;28;20432;-73
2022/05/17 09:54:48;;;;;;;4.13;2.40;;;;;;;31.12;25.20;101028.16;5002707;28;20417;-77
2022/05/17 09:57:21;;;;;;;4.10;2.50;;;;;;;30.99;25.16;101034.41;5033928;28;20791;-74
2022/05/17 09:59:50;;;;;;;4.60;2.40;;;;;;;31.09;24.93;101017.00;5036005;28;20437;-79
2022/05/17 10:02:36;;;;;;;4.33;2.40;;;;;;;31.02;26.05;101022.88;5040266;28;21341;-77
2022/05/17 10:05:14;;;;;;;4.70;2.50;;;;;;;31.39;24.86;101015.63;5036725;28;20535;-74
2022/05/17 10:07:43;;;;;;;3.30;2.30;;;;;;;31.35;24.86;101007.22;5043064;28;20424;-77
2022/05/17 10:10:36;;;;;;;4.43;2.80;;;;;;;31.53;24.98;101000.03;5035341;28;20549;-72
2022/05/17 10:13:19;;;;;;;19.40;9.23;;;;;;;31.40;24.13;101006.28;5036759;28;20430;-74
2022/05/17 10:15:49;;;;;;;4.70;2.60;;;;;;;31.42;24.47;100999.41;5045172;28;20506;-75
2022/05/17 10:18:31;;;;;;;4.07;2.22;;;;;;;31.07;24.72;100998.13;5021192;28;20517;-72
2022/05/17 10:21:03;;;;;;;4.82;2.22;;;;;;;30.98;24.99;100998.00;4982377;28;20504;-72
2022/05/17 10:23:36;;;;;;;3.17;2.53;;;;;;;31.20;24.66;100989.13;4984282;28;20432;-71
2022/05/17 10:26:10;;;;;;;7.07;2.30;;;;;;;31.23;24.12;100990.47;4983423;28;20455;-72
2022/05/17 10:28:42;;;;;;;2.00;1.80;;;;;;;31.28;24.20;100990.38;4981775;28;20532;-73
2022/05/17 10:31:19;;;;;;;4.53;2.60;;;;;;;31.56;24.19;100982.16;4983098;28;20542;-71
2022/05/17 10:34:02;;;;;;;2.97;2.05;;;;;;;31.31;23.98;100980.72;4985148;28;20549;-69
2022/05/17 10:36:37;;;;;;;5.47;2.20;;;;;;;31.33;23.93;100979.31;4988568;28;20792;-70
2022/05/17 10:39:12;;;;;;;4.60;2.70;;;;;;;31.01;24.29;100975.53;4988082;28;20433;-70
2022/05/17 10:41:41;;;;;;;2.95;2.15;;;;;;;31.32;24.31;100969.47;4987611;28;20973;-69
2022/05/17 10:44:08;;;;;;;5.68;2.63;;;;;;;31.43;24.13;100973.63;4989168;28;20600;-71
2022/05/17 10:46:39;;;;;;;3.70;2.40;;;;;;;31.24;24.12;100972.91;4988792;28;20512;-72
2022/05/17 10:49:24;;;;;;;2.95;2.20;;;;;;;31.28;24.11;100970.34;4986423;28;21300;-69
2022/05/17 10:51:58;;;;;;;5.20;3.25;;;;;;;31.27;25.50;100957.78;4987051;28;20456;-65
2022/05/17 10:54:37;;;;;;;3.57;2.27;;;;;;;31.31;23.78;100961.53;4988937;28;20926;-66
2022/05/17 10:57:17;;;;;;;4.28;2.05;;;;;;;31.57;23.27;100956.41;4991097;28;20987;-66
2022/05/17 10:59:51;;;;;;;3.25;1.90;;;;;;;31.77;22.62;100952.41;4991574;28;20800;-66
2022/05/17 11:02:39;;;;;;;3.08;1.90;;;;;;;31.55;22.62;100939.47;4984039;28;20514;-65
2022/05/17 11:05:21;;;;;;;4.57;2.00;;;;;;;31.72;22.37;100947.03;4976149;28;20434;-65
2022/05/17 11:07:57;;;;;;;3.10;2.20;;;;;;;31.86;22.78;100944.28;4984909;28;20417;-65
2022/05/17 11:10:34;;;;;;;3.58;1.98;;;;;;;31.70;22.04;100930.91;4985957;28;20516;-65
2022/05/17 11:13:13;;;;;;;4.15;2.40;;;;;;;31.84;22.13;100925.38;4981141;28;20431;-65
2022/05/17 11:15:45;;;;;;;5.95;2.10;;;;;;;31.83;22.17;100921.00;4969904;28;20494;-65
2022/05/17 11:18:18;;;;;;;6.32;2.88;;;;;;;32.06;22.83;100915.59;4969725;28;20502;-63
2022/05/17 11:20:52;;;;;;;5.53;2.97;;;;;;;32.26;23.65;100911.56;4972961;28;20534;-65
2022/05/17 11:23:41;;;;;;;8.60;2.77;;;;;;;32.46;23.43;100899.25;4981310;28;20429;-65
2022/05/17 11:26:52;;;;;;;5.72;3.10;;;;;;;32.50;23.36;100905.72;4974184;28;20538;-63
2022/05/17 11:29:55;;;;;;;12.75;2.63;;;;;;;32.54;22.24;100893.81;4983787;28;20509;-68
2022/05/17 11:32:28;;;;;;;5.18;2.58;;;;;;;32.54;22.58;100882.03;4970021;28;20547;-64
2022/05/17 11:34:56;;;;;;;8.30;2.50;;;;;;;32.49;22.52;100877.50;4983890;28;20425;-67
2022/05/17 11:37:46;;;;;;;6.75;2.00;;;;;;;32.55;20.87;100873.47;4982169;28;20434;-68
2022/05/17 11:40:52;;;;;;;25.50;15.55;;;;;;;32.52;21.17;100874.13;4985229;28;20423;-69
2022/05/17 11:43:42;;;;;;;17.27;12.10;;;;;;;32.60;20.99;100866.28;4978674;28;20504;-67
2022/05/17 11:46:48;;;;;;;5.50;2.10;;;;;;;32.50;21.31;100867.31;4984175;28;20528;-67
2022/05/17 11:49:45;;;;;;;24.75;15.85;;;;;;;32.67;21.13;100861.16;4967965;28;20437;-66
2022/05/17 11:52:28;;;;;;;10.52;6.63;;;;;;;32.78;21.95;100861.69;4978475;28;20425;-67
2022/05/17 11:54:56;;;;;;;5.18;2.03;;;;;;;32.47;21.75;100844.06;4977552;28;20504;-65
2022/05/17 11:58:00;;;;;;;3.33;2.00;;;;;;;32.20;21.87;100847.78;4980393;28;20500;-65
2022/05/17 12:00:43;;;;;;;4.00;1.92;;;;;;;32.32;22.13;100845.28;4979355;28;21417;-66